createdAt,value
2023-03-19T00:02:04.070Z,15.69
2023-03-19T00:04:41.951Z,15.74
2023-03-19T00:07:11.641Z,15.75
2023-03-19T00:09:41.654Z,15.76
2023-03-19T00:12:13.567Z,15.79
2023-03-19T00:14:43.574Z,15.81
2023-03-19T00:17:13.656Z,15.82
2023-03-19T00:19:43.189Z,15.78
2023-03-19T00:22:13.440Z,15.84
2023-03-19T00:24:43.013Z,15.84
2023-03-19T00:27:13.563Z,15.89
2023-03-19T00:29:43.255Z,15.87
2023-03-19T00:32:12.978Z,15.87
2023-03-19T00:34:43.403Z,15.94
2023-03-19T00:37:13.755Z,15.97
2023-03-19T00:39:43.469Z,16.00
2023-03-19T00:42:13.584Z,16.00
2023-03-19T00:44:43.412Z,16.01
2023-03-19T00:47:13.498Z,16.04
2023-03-19T00:49:43.196Z,16.04
2023-03-19T00:52:12.793Z,16.05
2023-03-19T00:54:43.103Z,16.04
2023-03-19T00:57:12.933Z,16.03
2023-03-19T00:59:42.909Z,16.07
2023-03-19T01:02:12.564Z,16.10
2023-03-19T01:04:42.467Z,16.13
2023-03-19T01:07:12.914Z,16.13
2023-03-19T01:09:42.827Z,16.17
2023-03-19T01:12:12.663Z,16.18
2023-03-19T01:14:42.739Z,16.19
2023-03-19T01:17:12.411Z,16.23
2023-03-19T01:19:41.941Z,16.23
2023-03-19T01:22:11.636Z,16.25
2023-03-19T01:24:41.236Z,16.30
2023-03-19T01:27:11.382Z,16.27
2023-03-19T01:29:41.079Z,16.27
2023-03-19T01:32:10.693Z,16.28
2023-03-19T01:34:40.277Z,16.32
2023-03-19T01:37:09.882Z,16.31
2023-03-19T01:39:39.604Z,16.34
2023-03-19T01:42:09.894Z,16.42
2023-03-19T01:44:41.255Z,16.40
2023-03-19T01:47:18.361Z,16.36
2023-03-19T01:49:59.232Z,16.48
2023-03-19T01:52:34.103Z,16.39
2023-03-19T01:55:07.190Z,16.39
2023-03-19T01:57:38.102Z,16.43
2023-03-19T02:00:09.663Z,16.42
2023-03-19T02:02:42.731Z,16.46
2023-03-19T02:05:19.301Z,16.48
2023-03-19T02:07:49.190Z,16.50
2023-03-19T02:10:20.093Z,16.48
2023-03-19T02:12:50.029Z,16.54
2023-03-19T02:15:20.243Z,16.59
2023-03-19T02:17:50.807Z,16.64
2023-03-19T02:20:29.468Z,16.65
2023-03-19T02:23:08.125Z,16.61
2023-03-19T02:25:47.092Z,16.70
2023-03-19T02:28:21.148Z,16.82
2023-03-19T02:30:50.953Z,16.69
2023-03-19T02:33:21.809Z,16.72
2023-03-19T02:35:54.491Z,16.74
2023-03-19T02:38:26.198Z,16.74
2023-03-19T02:41:03.963Z,16.75
2023-03-19T02:43:35.801Z,16.76
2023-03-19T02:46:07.874Z,16.79
2023-03-19T02:48:38.221Z,16.78
2023-03-19T02:51:08.343Z,16.84
2023-03-19T02:53:38.348Z,16.86
2023-03-19T02:56:08.192Z,16.87
2023-03-19T02:58:37.869Z,16.88
2023-03-19T03:01:07.941Z,16.88
2023-03-19T03:03:37.573Z,16.93
2023-03-19T03:06:07.659Z,16.88
2023-03-19T03:08:38.259Z,16.90
2023-03-19T03:11:08.085Z,16.95
2023-03-19T03:13:38.214Z,16.99
2023-03-19T03:16:08.164Z,17.01
2023-03-19T03:18:38.291Z,16.97
2023-03-19T03:21:07.998Z,17.03
2023-03-19T03:23:38.238Z,17.02
2023-03-19T03:26:08.951Z,17.03
2023-03-19T03:28:38.503Z,17.10
2023-03-19T03:31:08.204Z,17.15
2023-03-19T03:33:38.335Z,17.15
2023-03-19T03:36:08.705Z,17.11
2023-03-19T03:38:38.278Z,17.16
2023-03-19T03:41:08.589Z,17.11
2023-03-19T03:43:38.160Z,17.12
2023-03-19T03:46:08.932Z,17.13
2023-03-19T03:48:38.672Z,17.17
2023-03-19T03:51:09.025Z,17.16
2023-03-19T03:53:38.622Z,17.15
2023-03-19T03:56:08.638Z,17.22
2023-03-19T03:58:38.269Z,17.19
2023-03-19T04:01:09.169Z,17.21
2023-03-19T04:03:39.190Z,17.27
2023-03-19T04:06:08.955Z,17.26
2023-03-19T04:08:38.603Z,17.24
2023-03-19T04:11:11.464Z,17.28
2023-03-19T04:13:41.317Z,17.28
2023-03-19T04:16:12.573Z,17.29
2023-03-19T04:18:42.243Z,17.31
2023-03-19T04:21:11.847Z,17.36
2023-03-19T04:23:41.471Z,17.38
2023-03-19T04:26:12.043Z,17.36
2023-03-19T04:28:41.573Z,17.39
2023-03-19T04:31:12.353Z,17.39
2023-03-19T04:33:41.950Z,17.42
2023-03-19T04:36:11.580Z,17.48
2023-03-19T04:38:41.170Z,17.47
2023-03-19T04:41:10.725Z,17.42
2023-03-19T04:43:40.320Z,17.46
2023-03-19T04:46:10.040Z,17.47
2023-03-19T04:48:40.985Z,17.49
2023-03-19T04:51:11.102Z,17.48
2023-03-19T04:53:41.501Z,17.46
2023-03-19T04:56:11.274Z,17.50
2023-03-19T04:58:40.885Z,17.49
2023-03-19T05:01:10.722Z,17.51
2023-03-19T05:03:40.602Z,17.51
2023-03-19T05:06:10.843Z,17.47
2023-03-19T05:08:40.409Z,17.49
2023-03-19T05:11:10.125Z,17.50
2023-03-19T05:13:39.731Z,17.50
2023-03-19T05:16:09.573Z,17.47
2023-03-19T05:18:41.269Z,17.48
2023-03-19T05:21:13.939Z,17.50
2023-03-19T05:23:43.672Z,17.49
2023-03-19T05:26:13.689Z,17.45
2023-03-19T05:28:43.309Z,17.50
2023-03-19T05:31:12.887Z,17.48
2023-03-19T05:33:43.382Z,17.52
2023-03-19T05:36:13.900Z,17.49
2023-03-19T05:38:43.585Z,17.56
2023-03-19T05:41:13.319Z,17.51
2023-03-19T05:43:43.205Z,17.53
2023-03-19T05:46:12.988Z,17.54
2023-03-19T05:48:42.620Z,17.54
2023-03-19T05:51:13.168Z,17.53
2023-03-19T05:53:42.731Z,17.54
2023-03-19T05:56:12.474Z,17.55
2023-03-19T05:58:42.086Z,17.52
2023-03-19T06:01:12.066Z,17.52
2023-03-19T06:03:41.782Z,17.55
2023-03-19T06:06:11.452Z,17.54
2023-03-19T06:08:41.184Z,17.49
2023-03-19T06:11:11.701Z,17.47
2023-03-19T06:13:41.376Z,17.51
2023-03-19T06:16:11.354Z,17.53
2023-03-19T06:18:41.194Z,17.49
2023-03-19T06:21:11.295Z,17.52
2023-03-19T06:23:41.126Z,17.53
2023-03-19T06:26:10.816Z,17.47
2023-03-19T06:28:40.374Z,17.46
2023-03-19T06:31:09.981Z,17.54
2023-03-19T06:33:39.526Z,17.51
2023-03-19T06:36:09.364Z,17.48
2023-03-19T06:38:39.356Z,17.48
2023-03-19T06:41:09.348Z,17.45
2023-03-19T06:43:39.090Z,17.45
2023-03-19T06:46:10.862Z,17.41
2023-03-19T06:48:41.332Z,17.43
2023-03-19T06:51:10.997Z,17.45
2023-03-19T06:53:41.405Z,17.47
2023-03-19T06:56:11.936Z,17.40
2023-03-19T06:58:41.517Z,17.38
2023-03-19T07:01:11.161Z,17.45
2023-03-19T07:03:40.759Z,17.38
2023-03-19T07:06:10.638Z,17.39
2023-03-19T07:08:40.215Z,17.38
2023-03-19T07:11:10.237Z,17.45
2023-03-19T07:13:39.815Z,17.38
2023-03-19T07:16:10.345Z,17.32
2023-03-19T07:18:39.998Z,17.30
2023-03-19T07:21:12.547Z,17.33
2023-03-19T07:23:43.115Z,17.27
2023-03-19T07:26:13.168Z,17.28
2023-03-19T07:28:43.117Z,17.30
2023-03-19T07:31:12.868Z,17.26
2023-03-19T07:33:42.554Z,17.24
2023-03-19T07:36:12.850Z,17.20
2023-03-19T07:38:42.503Z,17.18
2023-03-19T07:41:12.204Z,17.19
2023-03-19T07:43:41.934Z,17.17
2023-03-19T07:46:11.839Z,17.21
2023-03-19T07:48:41.510Z,17.14
2023-03-19T07:51:11.073Z,17.11
2023-03-19T07:53:40.752Z,17.16
2023-03-19T07:56:10.427Z,17.11
2023-03-19T07:58:39.969Z,17.04
2023-03-19T08:01:10.741Z,17.04
2023-03-19T08:03:41.006Z,17.01
2023-03-19T08:06:10.658Z,17.01
2023-03-19T08:08:40.273Z,17.00
2023-03-19T08:11:10.282Z,16.98
2023-03-19T08:13:39.820Z,16.97
2023-03-19T08:16:10.100Z,16.99
2023-03-19T08:18:39.906Z,16.99
2023-03-19T08:21:09.897Z,16.98
2023-03-19T08:23:39.496Z,16.95
2023-03-19T08:26:09.812Z,16.94
2023-03-19T08:28:40.703Z,16.95
2023-03-19T08:31:12.598Z,16.93
2023-03-19T08:33:43.097Z,16.92
2023-03-19T08:36:16.029Z,16.89
2023-03-19T08:38:45.772Z,16.88
2023-03-19T08:41:15.495Z,16.89
2023-03-19T08:43:45.007Z,16.88
2023-03-19T08:46:14.844Z,16.88
2023-03-19T08:48:44.754Z,16.88
2023-03-19T08:51:14.537Z,16.85
2023-03-19T08:53:44.103Z,16.86
2023-03-19T08:56:13.727Z,16.84
2023-03-19T08:58:44.228Z,16.85
2023-03-19T09:01:16.254Z,16.82
2023-03-19T09:03:46.936Z,16.82
2023-03-19T09:06:16.546Z,16.80
2023-03-19T09:08:46.375Z,16.77
2023-03-19T09:11:18.310Z,16.77
2023-03-19T09:13:48.074Z,16.76
2023-03-19T09:16:18.288Z,16.74
2023-03-19T09:18:48.180Z,16.73
2023-03-19T09:21:17.819Z,16.70
2023-03-19T09:23:47.549Z,16.71
2023-03-19T09:26:17.182Z,16.68
2023-03-19T09:28:46.745Z,16.66
2023-03-19T09:31:16.387Z,16.65
2023-03-19T09:33:46.063Z,16.63
2023-03-19T09:36:15.683Z,16.61
2023-03-19T09:38:45.248Z,16.58
2023-03-19T09:41:41.879Z,16.56
2023-03-19T09:44:37.172Z,16.55
2023-03-19T09:47:06.930Z,16.52
2023-03-19T09:49:45.178Z,16.50
2023-03-19T09:52:39.140Z,16.52
2023-03-19T09:55:19.088Z,16.49
2023-03-19T09:57:50.024Z,16.49
2023-03-19T10:00:30.255Z,16.47
2023-03-19T10:03:45.515Z,16.45
2023-03-19T10:06:35.248Z,16.44
2023-03-19T10:09:23.004Z,16.42
2023-03-19T10:12:07.853Z,16.41
2023-03-19T10:14:50.316Z,16.38
2023-03-19T10:17:37.164Z,16.39
2023-03-19T10:20:12.107Z,16.37
2023-03-19T10:22:59.460Z,16.35
2023-03-19T10:25:31.483Z,16.33
2023-03-19T10:28:22.890Z,16.33
2023-03-19T10:31:31.527Z,16.30
2023-03-19T10:34:34.203Z,16.28
2023-03-19T10:37:09.488Z,16.28
2023-03-19T10:39:41.558Z,16.26
2023-03-19T10:42:11.102Z,16.25
2023-03-19T10:45:09.636Z,16.25
2023-03-19T10:47:43.581Z,16.23
2023-03-19T10:50:22.392Z,16.19
2023-03-19T10:53:05.634Z,16.18
2023-03-19T10:55:36.418Z,16.17
2023-03-19T10:58:17.332Z,16.16
2023-03-19T11:00:51.337Z,16.14
2023-03-19T11:03:34.380Z,16.15
2023-03-19T11:06:10.439Z,16.13
2023-03-19T11:08:40.586Z,16.13
2023-03-19T11:11:34.624Z,16.12
2023-03-19T11:14:21.834Z,16.11
2023-03-19T11:17:31.423Z,16.10
2023-03-19T11:20:10.114Z,16.09
2023-03-19T11:22:41.923Z,16.08
2023-03-19T11:25:30.664Z,16.06
2023-03-19T11:28:22.103Z,16.06
2023-03-19T11:31:35.485Z,16.03
2023-03-19T11:34:05.076Z,16.02
2023-03-19T11:36:40.545Z,16.02
2023-03-19T11:39:29.015Z,16.01
2023-03-19T11:42:23.456Z,15.98
2023-03-19T11:45:03.323Z,16.01
2023-03-19T11:47:45.022Z,16.02
2023-03-19T11:50:29.452Z,16.00
2023-03-19T11:53:01.945Z,16.00
2023-03-19T11:55:41.577Z,16.00
2023-03-19T11:58:38.836Z,16.00
2023-03-19T12:01:46.074Z,15.97
2023-03-19T12:04:52.359Z,15.98
2023-03-19T12:07:44.052Z,15.94
2023-03-19T12:10:29.225Z,15.91
2023-03-19T12:13:23.869Z,15.93
2023-03-19T12:16:20.333Z,15.93
2023-03-19T12:19:02.032Z,15.95
2023-03-19T12:21:43.676Z,15.95
2023-03-19T12:24:23.170Z,15.91
2023-03-19T12:27:05.852Z,15.91
2023-03-19T12:29:58.977Z,15.88
2023-03-19T12:32:34.771Z,15.88
2023-03-19T12:35:21.296Z,15.85
2023-03-19T12:38:15.778Z,15.83
2023-03-19T12:40:50.181Z,15.84
2023-03-19T12:43:56.864Z,15.82
2023-03-19T12:46:39.488Z,15.82
2023-03-19T12:49:48.063Z,15.81
2023-03-19T12:52:20.436Z,15.82
2023-03-19T12:55:06.015Z,15.77
2023-03-19T12:57:38.252Z,15.77
2023-03-19T13:00:21.790Z,15.77
2023-03-19T13:02:59.192Z,15.76
2023-03-19T13:05:47.926Z,15.74
2023-03-19T13:08:40.045Z,15.74
2023-03-19T13:11:28.154Z,15.72
2023-03-19T13:14:06.165Z,15.73
2023-03-19T13:17:04.788Z,15.73
2023-03-19T13:19:43.607Z,15.71
2023-03-19T13:22:17.605Z,15.68
2023-03-19T13:24:49.604Z,15.69
2023-03-19T13:27:32.996Z,15.66
2023-03-19T13:30:14.671Z,15.67
2023-03-19T13:32:53.751Z,15.65
2023-03-19T13:35:38.673Z,15.66
2023-03-19T13:38:46.379Z,15.65
2023-03-19T13:41:37.370Z,15.64
2023-03-19T13:44:25.152Z,15.62
2023-03-19T13:46:55.061Z,15.61
2023-03-19T13:49:32.621Z,15.59
2023-03-19T13:52:06.284Z,15.57
2023-03-19T13:54:42.544Z,15.57
2023-03-19T13:57:18.408Z,15.58
2023-03-19T13:59:49.945Z,15.54
2023-03-19T14:02:25.778Z,15.60
2023-03-19T14:05:20.105Z,15.55
2023-03-19T14:07:55.574Z,15.55
2023-03-19T14:10:33.566Z,15.55
2023-03-19T14:13:07.956Z,15.52
2023-03-19T14:15:40.963Z,15.54
2023-03-19T14:18:20.335Z,15.50
2023-03-19T14:21:13.023Z,15.47
2023-03-19T14:23:53.173Z,15.49
2023-03-19T14:27:17.704Z,15.48
2023-03-19T14:30:17.439Z,15.50
2023-03-19T14:32:49.529Z,15.45
2023-03-19T14:35:22.213Z,15.45
2023-03-19T14:37:55.933Z,15.45
2023-03-19T14:40:46.402Z,15.43
2023-03-19T14:43:58.723Z,15.43
2023-03-19T14:47:02.717Z,15.44
2023-03-19T14:50:26.915Z,15.44
2023-03-19T14:53:16.302Z,15.43
2023-03-19T14:55:49.398Z,15.41
2023-03-19T14:59:11.118Z,15.41
2023-03-19T15:02:17.272Z,15.44
2023-03-19T15:05:26.239Z,15.40
2023-03-19T15:08:06.036Z,15.38
2023-03-19T15:11:00.339Z,15.37
2023-03-19T15:13:36.311Z,15.36
2023-03-19T15:16:48.031Z,15.34
2023-03-19T15:19:21.954Z,15.35
2023-03-19T15:22:47.886Z,15.30
2023-03-19T15:25:54.196Z,15.30
2023-03-19T15:28:23.820Z,15.33
2023-03-19T15:31:26.806Z,15.32
2023-03-19T15:33:55.361Z,15.34
2023-03-19T15:36:31.568Z,15.32
2023-03-19T15:39:07.813Z,15.34
2023-03-19T15:41:43.365Z,15.33
2023-03-19T15:44:27.635Z,15.32
2023-03-19T15:46:59.560Z,15.32
2023-03-19T15:49:34.517Z,15.30
2023-03-19T15:52:09.114Z,15.29
2023-03-19T15:54:38.859Z,15.36
2023-03-19T15:57:10.410Z,15.31
2023-03-19T15:59:40.368Z,15.30
2023-03-19T16:02:42.003Z,15.30
2023-03-19T16:05:41.041Z,15.29
2023-03-19T16:08:27.762Z,15.33
2023-03-19T16:10:57.764Z,15.28
2023-03-19T16:13:34.715Z,15.29
2023-03-19T16:16:22.985Z,15.24
2023-03-19T16:18:57.740Z,15.21
2023-03-19T16:21:30.111Z,15.19
2023-03-19T16:24:11.198Z,15.18
2023-03-19T16:26:43.851Z,15.20
2023-03-19T16:29:27.832Z,15.19
2023-03-19T16:32:20.917Z,15.16
2023-03-19T16:35:15.688Z,15.17
2023-03-19T16:37:54.946Z,15.15
2023-03-19T16:40:25.336Z,15.17
2023-03-19T16:43:08.062Z,15.14
2023-03-19T16:45:37.850Z,15.18
2023-03-19T16:48:07.691Z,15.14
2023-03-19T16:50:42.403Z,15.10
2023-03-19T16:53:38.047Z,15.08
2023-03-19T16:56:08.146Z,15.11
2023-03-19T16:58:45.785Z,15.09
2023-03-19T17:01:21.453Z,15.12
2023-03-19T17:03:56.528Z,15.09
2023-03-19T17:06:26.671Z,15.06
2023-03-19T17:08:56.439Z,15.07
2023-03-19T17:11:30.182Z,15.08
2023-03-19T17:14:01.301Z,15.08
2023-03-19T17:16:31.688Z,15.07
2023-03-19T17:19:01.523Z,15.08
2023-03-19T17:21:35.034Z,15.07
2023-03-19T17:24:26.036Z,15.04
2023-03-19T17:26:57.175Z,15.07
2023-03-19T17:29:27.727Z,15.08
2023-03-19T17:31:59.862Z,15.04
2023-03-19T17:34:33.419Z,15.04
2023-03-19T17:37:05.263Z,15.04
2023-03-19T17:39:35.653Z,15.02
2023-03-19T17:42:08.907Z,15.00
2023-03-19T17:44:38.522Z,15.01
2023-03-19T17:47:08.277Z,15.01
2023-03-19T17:49:37.886Z,15.01
2023-03-19T17:52:16.385Z,15.00
2023-03-19T17:54:47.137Z,15.00
2023-03-19T17:57:17.803Z,14.98
2023-03-19T17:59:47.501Z,14.98
2023-03-19T18:02:32.019Z,14.98
2023-03-19T18:05:01.786Z,14.95
2023-03-19T18:07:31.420Z,14.94
2023-03-19T18:10:01.036Z,14.94
2023-03-19T18:12:30.621Z,14.94
2023-03-19T18:15:00.280Z,14.92
2023-03-19T18:17:29.778Z,14.93
2023-03-19T18:19:59.827Z,14.93
2023-03-19T18:22:30.626Z,14.92
2023-03-19T18:25:00.264Z,14.93
2023-03-19T18:27:29.849Z,14.88
2023-03-19T18:29:59.491Z,14.91
2023-03-19T18:32:33.909Z,14.89
2023-03-19T18:35:05.062Z,14.90
2023-03-19T18:37:37.653Z,14.90
2023-03-19T18:40:07.744Z,14.89
2023-03-19T18:42:37.411Z,14.87
2023-03-19T18:45:07.495Z,14.85
2023-03-19T18:47:37.868Z,14.86
2023-03-19T18:50:25.021Z,14.88
2023-03-19T18:52:55.970Z,14.88
2023-03-19T18:55:35.603Z,14.86
2023-03-19T18:58:05.719Z,14.87
2023-03-19T19:00:37.713Z,14.85
2023-03-19T19:03:07.646Z,14.86
2023-03-19T19:05:37.852Z,14.84
2023-03-19T19:08:14.965Z,14.84
2023-03-19T19:10:51.000Z,14.82
2023-03-19T19:13:38.635Z,14.81
2023-03-19T19:16:22.460Z,14.82
2023-03-19T19:18:52.011Z,14.83
2023-03-19T19:21:21.666Z,14.87
2023-03-19T19:23:51.273Z,14.83
2023-03-19T19:26:25.831Z,14.81
2023-03-19T19:28:58.225Z,14.80
2023-03-19T19:31:33.823Z,14.80
2023-03-19T19:34:03.513Z,14.85
2023-03-19T19:36:33.361Z,14.83
2023-03-19T19:39:03.026Z,14.80
2023-03-19T19:41:35.457Z,14.81
2023-03-19T19:44:05.233Z,14.80
2023-03-19T19:46:35.231Z,14.78
2023-03-19T19:49:04.864Z,14.81
2023-03-19T19:51:34.416Z,14.78
2023-03-19T19:54:03.933Z,14.80
2023-03-19T19:56:33.607Z,14.77
2023-03-19T19:59:03.266Z,14.73
2023-03-19T20:01:33.103Z,14.71
2023-03-19T20:04:02.833Z,14.62
2023-03-19T20:06:32.506Z,14.60
2023-03-19T20:09:02.138Z,14.57
2023-03-19T20:11:33.501Z,14.59
2023-03-19T20:14:03.111Z,14.57
2023-03-19T20:16:32.681Z,14.55
2023-03-19T20:19:03.084Z,14.56
2023-03-19T20:21:33.577Z,14.51
2023-03-19T20:24:03.337Z,14.55
2023-03-19T20:26:35.462Z,14.55
2023-03-19T20:29:06.138Z,14.49
2023-03-19T20:31:37.856Z,14.47
2023-03-19T20:34:07.407Z,14.50
2023-03-19T20:36:36.942Z,14.50
2023-03-19T20:39:06.588Z,14.50
2023-03-19T20:41:36.267Z,14.50
2023-03-19T20:44:07.559Z,14.45
2023-03-19T20:46:38.130Z,14.45
2023-03-19T20:49:07.857Z,14.41
2023-03-19T20:51:37.425Z,14.44
2023-03-19T20:54:07.627Z,14.43
2023-03-19T20:56:39.273Z,14.38
2023-03-19T20:59:11.875Z,14.42
2023-03-19T21:01:41.556Z,14.40
2023-03-19T21:04:20.075Z,14.33
2023-03-19T21:06:53.634Z,14.51
2023-03-19T21:09:25.121Z,15.16
2023-03-19T21:11:54.741Z,15.51
2023-03-19T21:14:28.459Z,15.98
2023-03-19T21:16:58.002Z,16.37
2023-03-19T21:19:27.609Z,16.70
2023-03-19T21:21:57.275Z,17.01
2023-03-19T21:24:27.771Z,17.26
2023-03-19T21:26:58.405Z,17.48
2023-03-19T21:29:34.670Z,17.69
2023-03-19T21:32:04.182Z,17.88
2023-03-19T21:34:33.869Z,18.04
2023-03-19T21:37:03.559Z,18.18
2023-03-19T21:39:34.073Z,18.32
2023-03-19T21:42:09.686Z,18.47
2023-03-19T21:44:39.735Z,18.60
2023-03-19T21:47:15.248Z,18.72
2023-03-19T21:49:44.871Z,18.82
2023-03-19T21:52:17.242Z,18.91
2023-03-19T21:54:46.856Z,18.98
2023-03-19T21:57:18.773Z,19.10
2023-03-19T21:59:48.564Z,19.16
2023-03-19T22:02:30.276Z,19.23
2023-03-19T22:04:59.951Z,19.33
2023-03-19T22:07:29.723Z,19.41
2023-03-19T22:09:59.445Z,19.50
2023-03-19T22:12:30.816Z,19.54
2023-03-19T22:15:00.382Z,19.60
2023-03-19T22:17:30.718Z,19.69
2023-03-19T22:20:00.387Z,19.74
2023-03-19T22:22:30.570Z,19.79
2023-03-19T22:25:01.812Z,19.84
2023-03-19T22:27:31.444Z,19.99
2023-03-19T22:30:03.590Z,20.01
2023-03-19T22:32:33.363Z,19.99
2023-03-19T22:35:04.700Z,20.06
2023-03-19T22:37:34.492Z,20.13
2023-03-19T22:40:04.146Z,20.13
2023-03-19T22:42:33.806Z,20.22
2023-03-19T22:45:03.476Z,20.33
2023-03-19T22:47:37.487Z,20.39
2023-03-19T22:50:08.412Z,20.48
2023-03-19T22:52:38.235Z,20.59
2023-03-19T22:55:08.234Z,20.64
2023-03-19T22:57:37.762Z,20.65
2023-03-19T23:00:14.666Z,20.74
2023-03-19T23:02:44.878Z,20.83
2023-03-19T23:05:29.435Z,20.86
2023-03-19T23:07:59.462Z,20.85
2023-03-19T23:10:31.990Z,20.80
2023-03-19T23:13:02.456Z,20.81
2023-03-19T23:15:33.130Z,20.56
2023-03-19T23:18:03.784Z,20.28
2023-03-19T23:20:35.231Z,20.12
2023-03-19T23:23:04.777Z,19.99
2023-03-19T23:25:35.374Z,19.61
2023-03-19T23:28:05.399Z,19.53
2023-03-19T23:30:36.025Z,19.04
2023-03-19T23:33:05.856Z,18.86
2023-03-19T23:35:36.686Z,18.61
2023-03-19T23:38:06.434Z,18.50
2023-03-19T23:40:36.654Z,18.43
2023-03-19T23:43:07.151Z,18.53
2023-03-19T23:45:44.765Z,18.38
2023-03-19T23:48:27.361Z,18.27
2023-03-19T23:50:56.878Z,18.27
2023-03-19T23:53:29.004Z,18.15
2023-03-19T23:56:06.320Z,18.23
2023-03-19T23:58:44.649Z,18.68
